Time;durP1;ratioP1;P1;durP2;ratioP2;P2;SDS_P1;SDS_P2;PMS_P1;PMS_P2;Temp;Humidity;BMP_temperature;BMP_pressure;BME280_temperature;BME280_humidity;BME280_pressure;Samples;Min_cycle;Max_cycle;Signal;HPM_P1;HPM_P2
2022/10/10 08:22:11;;;;;;;;;;;11.20;99.90;;;;;;6250457;22;19950;-80
2022/10/10 09:07:56;;;;;;;;;;;;;;;;;;;;;
2022/10/10 09:10:55;;;;;;;;;;;;;;;;;;;;;
2022/10/10 09:13:49;;;;;;;;;;;12.60;99.90;;;;;;6128520;23;19971;-81
2022/10/10 09:16:33;;;;;;;;;;;12.80;99.90;;;;;;6130819;23;20409;-78
2022/10/10 09:22:33;;;;;;;;;;;;;;;;;;;;;
2022/10/10 09:25:32;;;;;;;;;;;12.90;99.90;;;;;;6067895;23;19927;-80
2022/10/10 09:28:31;;;;;;;;;;;13.20;99.90;;;;;;6049353;23;19917;-81
2022/10/10 09:35:06;;;;;;;;;;;13.50;99.90;;;;;;5877009;24;20344;-81
2022/10/10 09:38:08;;;;;;;;;;;13.90;99.90;;;;;;5876421;24;19951;-82
2022/10/10 09:41:01;;;;;;;;;;;14.10;99.90;;;;;;5865158;24;19959;-81
2022/10/10 09:43:48;;;;;;;;;;;14.10;99.90;;;;;;5875736;24;19919;-82
2022/10/10 09:50:03;;;;;;;;;;;14.30;99.90;;;;;;5899748;24;20373;-80
2022/10/10 09:52:44;;;;;;;;;;;14.30;99.90;;;;;;5897625;23;20005;-80
2022/10/10 09:55:53;;;;;;;;;;;14.30;99.90;;;;;;5976289;24;19930;-81
2022/10/10 09:59:07;;;;;;;;;;;;;;;;;;;;;
2022/10/10 10:02:00;;;;;;;;;;;14.30;99.90;;;;;;6062759;23;19916;-81
2022/10/10 10:04:52;;;;;;;;;;;;;;;;;;;;;
2022/10/10 10:07:51;;;;;;;;;;;14.40;99.90;;;;;;6136553;23;20209;-82
2022/10/10 10:14:49;;;;;;;;;;;14.40;99.90;;;;;;6002636;23;19965;-81
2022/10/10 10:17:51;;;;;;;;;;;;;;;;;;;;;
2022/10/10 10:20:37;;;;;;;;;;;14.40;99.90;;;;;;5928854;24;19959;-82
2022/10/10 10:23:38;;;;;;;;;;;14.40;99.90;;;;;;5909353;24;19925;-82
2022/10/10 10:26:26;;;;;;;;;;;14.30;99.90;;;;;;5922874;24;19991;-81
2022/10/10 10:29:04;;;;;;;;;;;14.40;99.90;;;;;;5964835;23;19958;-79
2022/10/10 10:32:07;;;;;;;;;;;14.40;99.90;;;;;;6109577;23;20047;-78
2022/10/10 10:34:53;;;;;;;;;;;14.40;99.90;;;;;;6175853;23;19943;-77
2022/10/10 10:41:01;;;;;;;;;;;14.30;99.90;;;;;;6244834;23;19919;-78
2022/10/10 10:44:02;;;;;;;;;;;14.40;99.90;;;;;;6221319;23;19994;-78
2022/10/10 10:46:49;;;;;;;;;;;14.40;99.90;;;;;;6195955;23;19916;-79
2022/10/10 10:49:19;;;;;;;;;;;14.40;99.90;;;;;;6200772;23;19922;-76
2022/10/10 10:52:17;;;;;;;;;;;14.30;99.90;;;;;;6197747;23;19920;-79
2022/10/10 10:54:49;;;;;;;;;;;14.20;99.90;;;;;;6177320;23;19958;-79
2022/10/10 10:57:36;;;;;;;;;;;;;;;;;;;;;
2022/10/10 11:00:19;;;;;;;;;;;14.30;99.90;;;;;;6220766;23;20242;-81
2022/10/10 11:02:45;;;;;;;;;;;14.30;99.90;;;;;;6196032;23;19915;-80
2022/10/10 11:05:31;;;;;;;;;;;14.20;99.90;;;;;;6195695;23;19916;-80
2022/10/10 11:08:27;;;;;;;;;;;14.20;99.90;;;;;;6224117;23;19915;-79
2022/10/10 11:18:17;;;;;;;;;;;14.30;99.90;;;;;;6184949;23;19958;-77
2022/10/10 11:24:30;;;;;;;;;;;14.60;99.90;;;;;;6122860;23;20117;-80
2022/10/10 11:27:21;;;;;;;;;;;14.60;99.90;;;;;;6104324;23;19917;-74
2022/10/10 11:29:52;;;;;;;;;;;14.60;99.90;;;;;;6100399;23;19917;-74
2022/10/10 11:32:22;;;;;;;;;;;14.70;99.90;;;;;;6100265;23;20298;-77
2022/10/10 11:35:02;;;;;;;;;;;14.70;99.90;;;;;;6100305;23;20291;-77
2022/10/10 11:37:30;;;;;;;;;;;14.60;99.90;;;;;;6100438;23;19921;-78
2022/10/10 11:39:58;;;;;;;;;;;14.60;99.90;;;;;;6124632;23;19948;-78
2022/10/10 11:42:31;;;;;;;;;;;14.60;99.90;;;;;;6100406;23;19921;-77
2022/10/10 11:45:01;;;;;;;;;;;14.50;99.90;;;;;;6115820;23;19917;-77
2022/10/10 11:47:30;;;;;;;;;;;14.50;99.90;;;;;;6159091;23;19916;-77
2022/10/10 11:49:56;;;;;;;;;;;14.40;99.90;;;;;;6133960;23;20043;-76
2022/10/10 11:52:50;;;;;;;;;;;;;;;;;;;;;
2022/10/10 11:58:47;;;;;;;;;;;14.10;99.90;;;;;;6182893;23;20361;-72
2022/10/10 12:04:36;;;;;;;;;;;14.10;99.90;;;;;;6158802;23;20271;-77
2022/10/10 12:07:04;;;;;;;;;;;14.10;99.90;;;;;;6166540;23;20339;-68
2022/10/10 12:12:43;;;;;;;;;;;14.10;99.90;;;;;;6170424;23;19929;-73
2022/10/10 12:29:56;;;;;;;;;;;13.90;99.90;;;;;;6182226;23;19959;-74
2022/10/10 12:32:40;;;;;;;;;;;13.70;99.90;;;;;;6166914;22;20002;-73
2022/10/10 12:35:32;;;;;;;;;;;13.40;99.90;;;;;;6223942;22;19922;-74
2022/10/10 12:38:19;;;;;;;;;;;13.30;99.90;;;;;;6170716;23;19923;-76
2022/10/10 13:16:47;;;;;;;;;;;12.50;99.90;;;;;;6248049;22;19954;-79
2022/10/10 13:19:21;;;;;;;;;;;12.70;99.90;;;;;;6196413;23;19949;-73
2022/10/10 13:28:46;;;;;;;;;;;12.80;99.90;;;;;;6248014;22;19914;-83
2022/10/10 14:18:41;;;;;;;;;;;13.40;99.90;;;;;;6264521;22;19994;-71
2022/10/10 14:21:25;;;;;;;;;;;13.30;99.90;;;;;;6255359;22;19915;-69
2022/10/10 14:53:36;;;;;;;;;;;12.80;99.90;;;;;;6243614;23;19916;-78
2022/10/10 14:59:52;;;;;;;;;;;12.90;99.90;;;;;;6245849;23;20003;-75
2022/10/10 19:39:06;;;;;;;;;;;9.50;99.90;;;;;;6235450;22;19919;-71
2022/10/10 19:41:51;;;;;;;;;;;9.50;99.90;;;;;;6218517;23;19920;-75
2022/10/10 20:05:13;;;;;;;;;;;9.20;99.90;;;;;;6252575;22;19919;-75
2022/10/10 21:16:40;;;;;;;;;;;9.10;99.90;;;;;;5927871;24;20088;-79
2022/10/10 21:19:34;;;;;;;;;;;9.00;99.90;;;;;;6040311;23;19925;-78
2022/10/10 21:25:35;;;;;;;;;;;9.00;99.90;;;;;;6042413;23;19924;-79
2022/10/10 21:28:24;;;;;;;;;;;8.90;99.90;;;;;;6046088;23;19917;-78
2022/10/10 21:31:00;;;;;;;;;;;8.80;99.90;;;;;;6027173;23;19933;-76
2022/10/10 21:33:26;;;;;;;;;;;8.80;99.90;;;;;;6195312;23;19954;-77
2022/10/10 21:39:43;;;;;;;;;;;;;;;;;;;;;
2022/10/10 21:43:25;;;;;;;;;;;;;;;;;;;;;
